createdAt,value
2022-11-19T00:00:47.510Z,72.20
2022-11-19T00:05:50.511Z,72.30
2022-11-19T00:10:52.718Z,72.50
2022-11-19T00:15:54.941Z,72.30
2022-11-19T00:21:04.397Z,72.50
2022-11-19T00:26:11.569Z,72.50
2022-11-19T00:31:15.564Z,72.70
2022-11-19T00:36:18.079Z,72.40
2022-11-19T00:41:20.290Z,72.50
2022-11-19T00:46:28.402Z,72.60
2022-11-19T00:51:31.127Z,72.30
2022-11-19T00:56:33.310Z,72.30
2022-11-19T01:01:35.554Z,72.20
2022-11-19T01:06:38.141Z,72.50
2022-11-19T01:11:40.327Z,72.70
2022-11-19T01:16:42.832Z,72.60
2022-11-19T01:21:45.104Z,72.50
2022-11-19T01:26:47.375Z,72.10
2022-11-19T01:31:49.641Z,72.70
2022-11-19T01:36:52.315Z,72.20
2022-11-19T01:41:54.515Z,72.50
2022-11-19T01:46:56.567Z,72.30
2022-11-19T01:52:00.781Z,72.10
2022-11-19T01:57:07.712Z,72.40
2022-11-19T02:02:10.243Z,71.70
2022-11-19T02:07:13.877Z,71.60
2022-11-19T02:39:17.987Z,71.50
2022-11-19T02:49:34.033Z,71.70
2022-11-19T02:54:36.230Z,71.30
2022-11-19T03:00:07.446Z,71.20
2022-11-19T03:05:14.310Z,71.40
2022-11-19T03:10:22.208Z,71.00
2022-11-19T03:20:44.313Z,70.40
2022-11-19T03:25:54.057Z,70.40
2022-11-19T03:30:59.143Z,71.00
2022-11-19T03:36:10.571Z,71.20
2022-11-19T03:41:17.635Z,70.60
2022-11-19T03:46:22.071Z,70.50
2022-11-19T03:51:41.099Z,70.70
2022-11-19T03:56:45.175Z,70.00
2022-11-19T04:01:50.453Z,69.80
2022-11-19T04:06:52.729Z,69.70
2022-11-19T04:16:56.312Z,70.00
2022-11-19T04:21:58.564Z,70.10
2022-11-19T04:27:00.766Z,69.20
2022-11-19T04:32:03.121Z,69.50
2022-11-19T04:37:05.341Z,69.60
2022-11-19T04:42:07.548Z,69.80
2022-11-19T04:47:09.702Z,69.30
2022-11-19T04:52:11.906Z,69.10
2022-11-19T04:57:14.561Z,69.10
2022-11-19T05:02:16.731Z,69.30
2022-11-19T05:07:18.802Z,69.70
2022-11-19T05:12:21.089Z,69.50
2022-11-19T05:17:23.371Z,69.70
2022-11-19T05:22:25.622Z,69.60
2022-11-19T05:27:27.840Z,69.60
2022-11-19T05:32:30.048Z,69.20
2022-11-19T05:37:32.517Z,69.10
2022-11-19T05:42:34.724Z,69.60
2022-11-19T05:47:37.156Z,68.80
2022-11-19T05:52:39.388Z,68.80
2022-11-19T05:57:41.606Z,69.20
2022-11-19T06:02:44.083Z,68.90
2022-11-19T06:07:46.369Z,69.30
2022-11-19T06:12:48.602Z,69.30
2022-11-19T06:17:50.840Z,68.60
2022-11-19T06:22:53.046Z,68.20
2022-11-19T06:27:55.287Z,68.60
2022-11-19T06:32:57.477Z,68.10
2022-11-19T06:37:59.746Z,68.10
2022-11-19T06:43:01.995Z,67.60
2022-11-19T06:48:04.846Z,68.20
2022-11-19T06:53:07.555Z,67.30
2022-11-19T06:58:09.868Z,66.90
2022-11-19T07:03:12.066Z,66.70
2022-11-19T07:08:15.133Z,66.80
2022-11-19T07:13:17.509Z,66.30
2022-11-19T07:18:19.720Z,69.00
2022-11-19T07:23:22.114Z,67.60
2022-11-19T07:28:24.298Z,63.80
2022-11-19T07:33:26.489Z,62.90
2022-11-19T07:38:32.759Z,63.70
2022-11-19T07:43:37.974Z,61.00
2022-11-19T07:48:40.423Z,60.10
2022-11-19T07:53:43.464Z,59.70
2022-11-19T07:58:45.809Z,60.20
2022-11-19T08:03:54.891Z,62.20
2022-11-19T08:08:58.625Z,61.70
2022-11-19T08:14:02.282Z,59.40
2022-11-19T08:19:09.606Z,59.00
2022-11-19T08:24:13.813Z,59.00
2022-11-19T08:29:18.642Z,59.10
2022-11-19T08:34:22.341Z,58.40
2022-11-19T08:39:24.862Z,59.10
2022-11-19T08:44:27.143Z,60.30
2022-11-19T08:49:29.306Z,60.10
2022-11-19T08:54:31.556Z,59.50
2022-11-19T08:59:33.903Z,58.80
2022-11-19T09:04:36.960Z,57.10
2022-11-19T09:09:39.193Z,57.60
2022-11-19T09:14:41.470Z,57.00
2022-11-19T09:19:43.681Z,57.50
2022-11-19T09:24:45.893Z,57.00
2022-11-19T09:29:48.140Z,56.70
2022-11-19T09:34:50.376Z,56.90
2022-11-19T09:39:52.581Z,57.40
2022-11-19T09:45:25.488Z,57.10
2022-11-19T09:50:35.481Z,57.20
2022-11-19T09:55:44.016Z,57.30
2022-11-19T10:00:46.324Z,56.80
2022-11-19T10:11:29.244Z,56.60
2022-11-19T10:27:04.303Z,56.80
2022-11-19T10:32:38.276Z,57.60
2022-11-19T10:37:55.850Z,57.50
2022-11-19T10:48:25.483Z,57.10
2022-11-19T10:58:43.165Z,57.30
2022-11-19T11:03:54.781Z,56.80
2022-11-19T11:08:57.035Z,56.70
2022-11-19T11:14:19.860Z,56.40
2022-11-19T11:19:23.327Z,56.90
2022-11-19T11:24:38.088Z,56.80
2022-11-19T11:29:40.294Z,55.80
2022-11-19T11:34:44.022Z,56.10
2022-11-19T11:39:52.755Z,55.90
2022-11-19T11:44:59.394Z,55.90
2022-11-19T12:00:34.884Z,56.20
2022-11-19T12:06:03.236Z,56.50
2022-11-19T12:12:00.775Z,56.10
2022-11-19T12:38:15.563Z,56.20
2022-11-19T12:54:26.755Z,56.40
2022-11-19T13:04:57.814Z,55.70
2022-11-19T13:10:13.306Z,55.30
2022-11-19T13:26:06.083Z,55.60
2022-11-19T13:31:17.030Z,55.40
2022-11-19T13:36:25.592Z,54.60
2022-11-19T13:42:00.950Z,55.10
2022-11-19T13:47:03.427Z,54.70
2022-11-19T13:57:37.465Z,55.20
2022-11-19T14:08:39.695Z,54.80
2022-11-19T14:19:36.362Z,55.20
2022-11-19T14:45:22.757Z,55.40
2022-11-19T14:50:29.514Z,56.50
2022-11-19T14:55:34.640Z,56.30
2022-11-19T15:00:40.787Z,55.60
2022-11-19T15:05:46.221Z,55.40
2022-11-19T15:32:36.229Z,57.00
2022-11-19T15:38:02.568Z,58.80
2022-11-19T15:48:24.240Z,59.00
2022-11-19T15:53:28.211Z,59.50
2022-11-19T15:58:41.749Z,60.30
2022-11-19T16:03:44.438Z,60.90
2022-11-19T16:08:51.248Z,61.80
2022-11-19T16:14:14.206Z,64.20
2022-11-19T16:19:18.231Z,66.90
2022-11-19T16:24:43.928Z,69.50
2022-11-19T16:29:46.662Z,70.70
2022-11-19T16:34:49.308Z,70.70
2022-11-19T16:39:53.088Z,70.80
2022-11-19T16:45:04.854Z,71.50
2022-11-19T17:00:35.743Z,73.40
2022-11-19T17:05:45.922Z,73.40
2022-11-19T17:10:48.242Z,74.10
2022-11-19T17:16:41.673Z,75.00
2022-11-19T17:21:50.789Z,74.70
2022-11-19T17:26:53.206Z,75.80
2022-11-19T17:31:56.523Z,76.20
2022-11-19T17:36:59.694Z,76.60
2022-11-19T17:48:22.170Z,78.40
2022-11-19T17:53:24.545Z,78.80
2022-11-19T17:58:26.744Z,79.10
2022-11-19T18:03:28.941Z,79.30
2022-11-19T18:08:31.237Z,80.20
2022-11-19T18:13:36.556Z,80.90
2022-11-19T18:18:39.144Z,82.50
2022-11-19T18:23:42.072Z,82.60
2022-11-19T18:28:48.607Z,82.60
2022-11-19T18:33:51.992Z,82.20
2022-11-19T18:38:55.723Z,81.30
2022-11-19T18:44:17.857Z,80.10
2022-11-19T18:49:20.118Z,80.70
2022-11-19T18:54:22.903Z,80.40
2022-11-19T18:59:25.241Z,80.40
2022-11-19T19:04:27.573Z,80.00
2022-11-19T19:09:30.325Z,80.20
2022-11-19T19:14:32.758Z,79.60
2022-11-19T19:19:35.194Z,79.10
2022-11-19T19:24:37.780Z,79.50
2022-11-19T19:29:40.033Z,79.70
2022-11-19T19:34:42.556Z,79.70
2022-11-19T19:39:44.861Z,79.00
2022-11-19T19:44:47.145Z,79.20
2022-11-19T19:49:49.620Z,79.00
2022-11-19T19:54:51.941Z,78.80
2022-11-19T19:59:54.134Z,78.80
2022-11-19T20:04:56.369Z,79.10
2022-11-19T20:09:58.795Z,79.00
2022-11-19T20:15:01.021Z,78.80
2022-11-19T20:20:03.659Z,78.30
2022-11-19T20:25:06.410Z,78.20
2022-11-19T20:30:09.618Z,78.80
2022-11-19T20:35:11.893Z,79.30
2022-11-19T20:40:14.121Z,79.30
2022-11-19T20:45:16.383Z,79.30
2022-11-19T20:50:18.701Z,79.30
2022-11-19T20:55:20.957Z,78.90
2022-11-19T21:00:23.195Z,78.70
2022-11-19T21:05:25.475Z,80.00
2022-11-19T21:10:27.697Z,80.00
2022-11-19T21:15:33.969Z,80.00
2022-11-19T21:20:36.199Z,78.90
2022-11-19T21:25:38.493Z,79.10
2022-11-19T21:30:40.751Z,79.10
2022-11-19T21:35:43.006Z,78.60
2022-11-19T21:40:45.280Z,78.60
2022-11-19T21:45:49.051Z,78.20
2022-11-19T21:50:52.333Z,77.90
2022-11-19T21:55:57.402Z,78.40
2022-11-19T22:01:01.555Z,78.00
2022-11-19T22:12:46.013Z,78.20
2022-11-19T22:17:48.271Z,78.10
2022-11-19T22:22:50.740Z,77.70
2022-11-19T22:27:52.995Z,77.70
2022-11-19T22:32:55.669Z,77.70
2022-11-19T22:37:57.861Z,77.40
2022-11-19T22:43:00.121Z,77.20
2022-11-19T22:48:02.324Z,77.50
2022-11-19T22:53:04.557Z,77.20
2022-11-19T22:58:06.845Z,76.70
2022-11-19T23:03:10.409Z,77.20
2022-11-19T23:08:12.660Z,77.20
2022-11-19T23:13:32.422Z,76.60
2022-11-19T23:18:37.350Z,76.30
2022-11-19T23:23:40.131Z,77.60
2022-11-19T23:28:42.706Z,77.30
2022-11-19T23:33:45.867Z,77.40
2022-11-19T23:38:48.300Z,76.90
2022-11-19T23:43:52.546Z,76.80
2022-11-19T23:48:56.529Z,76.40
2022-11-19T23:53:59.179Z,76.50
2022-11-19T23:59:02.913Z,76.30
